Time;durP1;ratioP1;P1;durP2;ratioP2;P2;SDS_P1;SDS_P2;PMS_P1;PMS_P2;Temp;Humidity;BMP_temperature;BMP_pressure;BME280_temperature;BME280_humidity;BME280_pressure;Samples;Min_cycle;Max_cycle;Signal;HPM_P1;HPM_P2
2023/03/28 00:01:02;;;;;;;8.23;5.17;;;;;;;-1.26;72.20;98979.76;1791957;79;20996;-57
2023/03/28 00:03:34;;;;;;;7.90;5.50;;;;;;;-1.25;72.39;98985.28;1790564;78;21414;-58
2023/03/28 00:05:59;;;;;;;10.53;6.47;;;;;;;-1.19;72.56;98978.80;1789703;78;21049;-58
2023/03/28 00:08:27;;;;;;;9.48;6.25;;;;;;;-1.19;71.51;98976.24;1790114;78;20947;-58
2023/03/28 00:11:17;;;;;;;10.65;5.97;;;;;;;-1.28;71.37;98976.36;1790658;79;21023;-58
2023/03/28 00:13:40;;;;;;;9.20;6.03;;;;;;;-1.38;71.54;98977.31;1790419;78;21008;-57
2023/03/28 00:16:11;;;;;;;8.48;5.15;;;;;;;-1.43;71.79;98971.39;1783496;79;21136;-58
2023/03/28 00:18:40;;;;;;;9.58;5.05;;;;;;;-1.45;71.72;98965.45;1786888;79;21511;-58
2023/03/28 00:21:19;;;;;;;11.33;5.85;;;;;;;-1.44;71.98;98971.83;1784471;79;20983;-58
2023/03/28 00:23:45;;;;;;;8.15;5.50;;;;;;;-1.49;72.31;98969.74;1782315;78;21538;-58
2023/03/28 00:26:12;;;;;;;9.83;5.23;;;;;;;-1.50;73.29;98969.78;1787238;79;20954;-58
2023/03/28 00:28:38;;;;;;;7.83;4.97;;;;;;;-1.46;73.77;98970.14;1788030;79;20970;-58
2023/03/28 00:31:07;;;;;;;10.63;5.30;;;;;;;-1.38;73.50;98961.95;1786443;79;21071;-58
2023/03/28 00:33:33;;;;;;;7.10;4.75;;;;;;;-1.40;73.56;98966.23;1784179;79;21013;-58
2023/03/28 00:35:59;;;;;;;10.18;4.72;;;;;;;-1.32;74.03;98972.12;1786692;79;20978;-58
2023/03/28 00:38:26;;;;;;;7.00;4.85;;;;;;;-1.24;74.55;98969.04;1786289;79;20998;-59
2023/03/28 00:40:56;;;;;;;9.87;5.07;;;;;;;-1.14;74.91;98973.20;1788747;79;21448;-58
2023/03/28 00:43:40;;;;;;;10.13;3.98;;;;;;;-1.08;74.91;98977.84;1788266;79;20986;-58
2023/03/28 00:46:12;;;;;;;5.87;3.40;;;;;;;-1.02;75.11;98975.20;1658819;85;21089;-58
2023/03/28 00:48:42;;;;;;;6.28;3.75;;;;;;;-0.88;75.25;98975.86;1647957;84;21063;-58
2023/03/28 00:51:09;;;;;;;8.48;3.77;;;;;;;-0.86;74.89;98979.27;1683013;84;20994;-58
2023/03/28 00:53:36;;;;;;;6.55;3.90;;;;;;;-0.96;74.98;98972.55;1665060;84;21093;-58
2023/03/28 00:56:07;;;;;;;;;;;;;;;-0.91;75.09;98986.16;1688007;83;21047;-58
2023/03/28 00:58:36;;;;;;;7.08;3.92;;;;;;;-0.87;75.49;98990.36;1674455;85;20429;-57
2023/03/28 01:01:03;;;;;;;7.08;4.15;;;;;;;-0.84;75.50;98987.79;1656374;85;21118;-58
2023/03/28 01:03:32;;;;;;;6.87;4.40;;;;;;;-0.81;75.51;98991.59;1654499;85;21109;-58
2023/03/28 01:06:03;;;;;;;7.70;4.03;;;;;;;-0.81;75.47;98990.31;1654253;85;21982;-58
2023/03/28 01:08:33;;;;;;;6.80;4.50;;;;;;;-0.81;75.43;98999.28;1656552;85;21601;-58
2023/03/28 01:10:59;;;;;;;5.62;4.65;;;;;;;-0.78;75.76;98992.83;1684758;83;21581;-58
2023/03/28 01:13:36;;;;;;;9.03;5.62;;;;;;;-0.74;75.90;98991.91;1658311;84;21076;-59
2023/03/28 01:16:02;;;;;;;8.53;5.75;;;;;;;-0.74;75.90;99006.01;1653636;85;21536;-57
2023/03/28 01:18:33;;;;;;;9.35;6.35;;;;;;;-0.78;75.85;99005.65;1653973;85;21061;-57
2023/03/28 01:21:08;;;;;;;9.13;6.30;;;;;;;-0.77;75.80;98999.64;1698114;79;20980;-58
2023/03/28 01:23:44;;;;;;;11.88;7.37;;;;;;;-0.91;75.53;99007.50;1737852;80;20942;-58
2023/03/28 01:26:46;;;;;;;9.08;6.62;;;;;;;-1.00;75.58;99008.06;1738804;80;21005;-58
2023/03/28 01:29:40;;;;;;;11.57;6.55;;;;;;;-1.04;75.83;99015.35;1753998;80;21092;-58
2023/03/28 01:32:45;;;;;;;10.75;6.47;;;;;;;-1.10;76.43;99015.43;1708311;82;21081;-57
2023/03/28 01:35:33;;;;;;;7.87;5.12;;;;;;;-1.08;76.36;99019.67;1700560;82;21038;-58
2023/03/28 01:38:28;;;;;;;7.55;4.03;;;;;;;-1.03;76.40;99024.76;1714783;82;21492;-58
2023/03/28 01:40:58;;;;;;;6.33;2.80;;;;;;;-1.03;76.27;99014.51;1701248;82;21047;-59
2023/03/28 01:43:48;;;;;;;2.35;2.15;;;;;;;-1.10;76.68;99024.39;1708031;80;21780;-58
2023/03/28 01:46:26;;;;;;;4.60;1.45;;;;;;;-1.14;76.46;99029.56;1739237;81;21626;-58
2023/03/28 01:49:11;;;;;;;2.17;1.25;;;;;;;-1.16;76.40;99030.00;1735525;81;21119;-58
2023/03/28 01:51:46;;;;;;;1.85;1.00;;;;;;;-1.24;76.75;99030.52;1753556;81;21068;-57
2023/03/28 01:54:33;;;;;;;1.47;1.30;;;;;;;-1.29;76.64;99036.11;1758719;80;21036;-58
2023/03/28 01:57:06;;;;;;;1.10;0.93;;;;;;;-1.29;76.77;99036.11;1755650;80;21012;-58
2023/03/28 01:59:55;;;;;;;1.87;1.20;;;;;;;-1.29;76.78;99039.11;1705730;82;21002;-58
2023/03/28 02:02:33;;;;;;;1.10;0.80;;;;;;;-1.28;76.89;99048.08;1754216;81;21005;-58
2023/03/28 02:05:03;;;;;;;1.95;0.88;;;;;;;-1.30;76.79;99042.11;1759393;80;21072;-59
2023/03/28 02:07:32;;;;;;;1.50;1.17;;;;;;;-1.30;76.79;99036.98;1755296;80;20999;-58
2023/03/28 02:10:01;;;;;;;2.77;1.45;;;;;;;-1.30;76.95;99042.11;1749888;80;21469;-58
2023/03/28 02:12:32;;;;;;;2.08;1.07;;;;;;;-1.30;76.97;99044.67;1772530;78;21122;-57
2023/03/28 02:15:03;;;;;;;1.90;0.90;;;;;;;-1.26;77.09;99042.92;1774403;78;21032;-58
2023/03/28 02:17:31;;;;;;;0.90;0.70;;;;;;;-1.29;76.94;99051.48;1804648;78;20948;-58
2023/03/28 02:20:07;;;;;;;1.65;0.57;;;;;;;-1.28;77.27;99053.20;1800935;78;21045;-58
2023/03/28 02:22:32;;;;;;;1.75;0.88;;;;;;;-1.24;77.31;99052.28;1800570;77;21054;-57
2023/03/28 02:24:59;;;;;;;1.27;0.88;;;;;;;-1.23;77.29;99048.87;1785900;78;21091;-58
2023/03/28 02:27:25;;;;;;;0.90;0.70;;;;;;;-1.22;77.18;99054.84;1789828;78;21116;-58
2023/03/28 02:29:53;;;;;;;1.85;0.88;;;;;;;-1.28;77.26;99053.20;1817698;78;21027;-58
2023/03/28 02:32:22;;;;;;;2.10;0.93;;;;;;;-1.29;77.19;99057.88;1816536;78;20969;-58
2023/03/28 02:34:51;;;;;;;0.90;0.60;;;;;;;-1.34;76.91;99063.51;1812857;78;20960;-57
2023/03/28 02:37:33;;;;;;;1.50;0.62;;;;;;;-1.43;77.02;99072.13;1816995;77;20989;-58
2023/03/28 02:40:14;;;;;;;1.10;0.53;;;;;;;-1.48;77.17;99073.03;1788249;78;21478;-57
2023/03/28 02:42:50;;;;;;;1.40;0.80;;;;;;;-1.48;77.18;99078.16;1783935;79;21016;-57
2023/03/28 02:45:54;;;;;;;0.60;0.60;;;;;;;-1.62;76.83;99079.11;1814008;77;21449;-58
2023/03/28 02:48:39;;;;;;;1.12;0.88;;;;;;;-1.76;77.13;99080.06;1819257;77;21009;-57
2023/03/28 02:51:28;;;;;;;2.58;1.60;;;;;;;-1.87;77.25;99092.97;1813453;77;21041;-59
2023/03/28 02:54:06;;;;;;;1.70;1.55;;;;;;;-1.89;77.52;99094.68;1816510;77;20977;-58
2023/03/28 02:57:03;;;;;;;1.55;1.45;;;;;;;-1.89;77.87;99090.41;1816239;78;20953;-57
2023/03/28 02:59:39;;;;;;;2.77;1.50;;;;;;;-1.90;77.79;99092.99;1818567;78;21091;-58
2023/03/28 03:02:07;;;;;;;2.92;1.10;;;;;;;-1.99;77.62;99098.15;1817807;78;21513;-57
2023/03/28 03:04:33;;;;;;;1.90;1.40;;;;;;;-2.03;77.78;99096.89;1814145;77;20934;-57
2023/03/28 03:07:01;;;;;;;1.30;1.10;;;;;;;-2.04;78.11;99101.60;1819925;78;21048;-59
2023/03/28 03:09:27;;;;;;;1.80;1.42;;;;;;;-2.11;78.13;99099.92;1817829;78;21425;-57
2023/03/28 03:11:54;;;;;;;1.57;1.12;;;;;;;-2.10;78.19;99110.59;1819329;78;20985;-58
2023/03/28 03:14:20;;;;;;;2.05;1.35;;;;;;;-2.12;79.14;99103.36;1817212;77;21072;-57
2023/03/28 03:16:47;;;;;;;1.60;1.20;;;;;;;-2.13;78.49;99106.78;1821561;78;20974;-57
2023/03/28 03:19:14;;;;;;;1.30;1.17;;;;;;;-2.10;78.29;99114.44;1817825;78;20992;-58
2023/03/28 03:21:40;;;;;;;3.67;1.53;;;;;;;-2.16;78.37;99110.61;1817150;77;20942;-58
2023/03/28 03:24:08;;;;;;;1.67;1.20;;;;;;;-2.21;78.22;99105.98;1809483;77;20926;-59
2023/03/28 03:26:35;;;;;;;1.20;0.90;;;;;;;-2.23;78.24;99112.80;1812300;77;21711;-57
2023/03/28 03:29:01;;;;;;;3.10;2.80;;;;;;;-2.23;78.37;99120.47;1786920;79;21498;-58
2023/03/28 03:31:28;;;;;;;3.83;3.15;;;;;;;-2.21;78.23;99123.00;1819070;76;20939;-57
2023/03/28 03:33:55;;;;;;;1.80;1.57;;;;;;;-2.29;78.11;99125.63;1816440;78;21041;-58
2023/03/28 03:36:21;;;;;;;2.47;1.47;;;;;;;-2.38;78.31;99126.92;1809267;77;21084;-58
2023/03/28 03:38:47;;;;;;;2.92;2.05;;;;;;;-2.44;78.73;99128.23;1777665;79;21477;-58
2023/03/28 03:41:13;;;;;;;2.58;2.00;;;;;;;-2.45;79.22;99135.49;1802986;77;21444;-58
2023/03/28 03:43:40;;;;;;;3.15;1.40;;;;;;;-2.48;79.20;99135.92;1802160;77;21067;-57
2023/03/28 03:46:06;;;;;;;1.77;1.00;;;;;;;-2.48;79.51;99142.31;1806310;77;21011;-58
2023/03/28 03:48:32;;;;;;;3.50;1.35;;;;;;;-2.47;79.36;99140.59;1793642;79;20899;-58
2023/03/28 03:50:59;;;;;;;1.35;1.10;;;;;;;-2.51;78.91;99138.48;1795290;78;20915;-58
2023/03/28 03:53:25;;;;;;;2.10;1.10;;;;;;;-2.57;79.50;99140.23;1812928;77;20945;-58
2023/03/28 03:55:51;;;;;;;1.40;1.10;;;;;;;-2.67;79.03;99142.38;1809593;78;21218;-58
2023/03/28 03:58:18;;;;;;;0.80;0.78;;;;;;;-2.75;78.86;99148.78;1816723;77;21476;-57
2023/03/28 04:00:47;;;;;;;1.20;0.82;;;;;;;-2.87;79.08;99137.33;1811524;77;20935;-58
2023/03/28 04:03:13;;;;;;;1.02;0.80;;;;;;;-3.00;79.13;99153.10;1814088;77;21490;-58
2023/03/28 04:05:39;;;;;;;1.87;0.80;;;;;;;-3.10;79.24;99149.73;1820945;77;20993;-57
2023/03/28 04:08:05;;;;;;;1.67;0.90;;;;;;;-3.20;79.22;99159.08;1812565;77;21437;-57
2023/03/28 04:10:31;;;;;;;1.15;0.68;;;;;;;-3.29;79.25;99160.80;1813124;77;21107;-58
2023/03/28 04:12:58;;;;;;;1.52;0.82;;;;;;;-3.37;79.15;99157.81;1811321;78;20922;-58
2023/03/28 04:15:24;;;;;;;0.95;0.80;;;;;;;-3.41;79.35;99165.06;1809793;77;20898;-58
2023/03/28 04:17:55;;;;;;;2.90;1.40;;;;;;;-3.48;79.11;99171.00;1813452;77;21059;-57
2023/03/28 04:20:19;;;;;;;2.87;1.05;;;;;;;-3.54;79.46;99173.55;1811408;77;21017;-58
2023/03/28 04:22:47;;;;;;;0.72;0.72;;;;;;;-3.59;79.58;99172.70;1811003;77;21001;-58
2023/03/28 04:25:13;;;;;;;;;;;;;;;-3.66;79.32;99181.21;1809935;78;21536;-58
2023/03/28 04:27:45;;;;;;;1.72;1.00;;;;;;;-3.73;79.64;99180.77;1815960;77;20199;-57
2023/03/28 04:30:09;;;;;;;1.25;1.00;;;;;;;-3.78;79.22;99182.45;1810412;77;20931;-58
2023/03/28 04:32:36;;;;;;;2.10;0.90;;;;;;;-3.85;79.19;99184.99;1772761;79;21163;-57
2023/03/28 04:35:04;;;;;;;3.02;1.07;;;;;;;-3.91;79.09;99188.81;1815028;78;20950;-58
2023/03/28 04:37:30;;;;;;;1.60;1.15;;;;;;;-3.95;78.86;99188.39;1810811;78;20962;-57
2023/03/28 04:39:57;;;;;;;1.98;1.20;;;;;;;-3.99;79.05;99187.94;1792572;78;21033;-57
2023/03/28 04:42:23;;;;;;;1.77;1.05;;;;;;;-4.00;79.21;99195.17;1790102;78;20985;-58
2023/03/28 04:44:49;;;;;;;2.95;1.20;;;;;;;-4.01;79.14;99189.62;1785370;78;20992;-57
2023/03/28 04:47:17;;;;;;;2.58;1.40;;;;;;;-3.98;79.05;99192.18;1792110;78;21719;-58
2023/03/28 04:49:43;;;;;;;1.50;1.00;;;;;;;-3.95;78.95;99194.77;1811722;78;20946;-58
2023/03/28 04:52:10;;;;;;;1.72;1.30;;;;;;;-3.92;78.86;99199.88;1813804;77;21002;-57
2023/03/28 04:54:36;;;;;;;2.52;1.15;;;;;;;-3.92;78.91;99198.59;1810306;77;21116;-58
2023/03/28 04:57:03;;;;;;;5.10;2.30;;;;;;;-3.92;78.69;99209.20;1808936;77;20946;-58
2023/03/28 04:59:29;;;;;;;4.53;2.00;;;;;;;-3.95;78.70;99208.80;1779939;79;20927;-56
2023/03/28 05:01:56;;;;;;;1.98;1.40;;;;;;;-3.91;79.01;99208.37;1783456;79;20994;-58
2023/03/28 05:04:24;;;;;;;3.15;1.70;;;;;;;-3.85;79.16;99211.78;1789809;79;20922;-57
2023/03/28 05:06:50;;;;;;;2.00;1.42;;;;;;;-3.84;78.79;99210.07;1790444;78;21486;-58
2023/03/28 05:09:17;;;;;;;1.95;1.30;;;;;;;-3.85;78.56;99210.50;1789641;78;21531;-56
2023/03/28 05:11:45;;;;;;;2.47;1.20;;;;;;;-3.88;78.55;99211.77;1782356;78;21081;-56
2023/03/28 05:14:12;;;;;;;2.60;1.70;;;;;;;-3.88;78.49;99211.77;1789794;78;21116;-57
2023/03/28 05:16:38;;;;;;;3.08;1.75;;;;;;;-3.88;78.46;99224.52;1789648;78;21008;-57
2023/03/28 05:19:05;;;;;;;5.15;2.45;;;;;;;-3.86;78.45;99224.55;1786831;78;21017;-57
2023/03/28 05:21:35;;;;;;;2.92;1.57;;;;;;;-3.88;78.38;99231.33;1793294;79;21543;-57
2023/03/28 05:24:05;;;;;;;4.03;2.00;;;;;;;-3.84;78.46;99232.63;1775678;77;21020;-57
2023/03/28 05:26:32;;;;;;;5.20;1.80;;;;;;;-3.84;78.30;99235.58;1813673;77;20931;-57
2023/03/28 05:28:58;;;;;;;4.53;1.87;;;;;;;-3.79;78.51;99237.73;1807632;78;21053;-57
2023/03/28 05:31:24;;;;;;;1.92;1.40;;;;;;;-3.57;78.91;99242.46;1783237;79;21714;-57
2023/03/28 05:33:53;;;;;;;1.40;1.27;;;;;;;-3.38;78.70;99249.30;1811767;77;21071;-57
2023/03/28 05:36:19;;;;;;;2.42;1.35;;;;;;;-3.18;78.66;99235.70;1773203;80;21068;-57
2023/03/28 05:38:46;;;;;;;1.90;1.20;;;;;;;-2.99;78.60;99247.63;1781993;79;21612;-57
2023/03/28 05:41:12;;;;;;;2.93;1.27;;;;;;;-2.86;78.54;99252.71;1767813;78;21001;-56
2023/03/28 05:43:38;;;;;;;4.30;1.32;;;;;;;-2.66;78.77;99251.02;1812279;77;21013;-56
2023/03/28 05:46:06;;;;;;;4.62;1.75;;;;;;;-2.42;78.84;99253.08;1812005;77;20934;-57
2023/03/28 05:48:32;;;;;;;4.65;1.95;;;;;;;-2.34;78.45;99258.59;1807583;78;20989;-57
2023/03/28 05:50:59;;;;;;;4.35;1.37;;;;;;;-2.39;78.16;99262.02;1784240;79;20962;-60
2023/03/28 05:53:25;;;;;;;2.17;1.30;;;;;;;-2.49;78.19;99265.88;1817844;77;20939;-59
2023/03/28 05:55:51;;;;;;;4.20;1.90;;;;;;;-2.37;78.47;99267.99;1822987;77;21101;-59
2023/03/28 05:58:18;;;;;;;3.58;2.12;;;;;;;-2.21;78.38;99274.77;1824533;77;20997;-59
2023/03/28 06:00:45;;;;;;;4.53;1.65;;;;;;;-1.88;78.64;99280.61;1820935;77;20934;-59
2023/03/28 06:03:13;;;;;;;6.25;1.32;;;;;;;-1.77;78.68;99281.41;1825822;77;21112;-59
2023/03/28 06:05:40;;;;;;;2.35;1.30;;;;;;;-1.85;79.21;99267.80;1819829;77;21069;-58
2023/03/28 06:08:08;;;;;;;2.83;1.32;;;;;;;-2.04;78.94;99278.13;1788413;78;21025;-59
2023/03/28 06:10:35;;;;;;;;;;;;;;;-2.03;79.46;99272.14;1791123;79;21187;-60
2023/03/28 06:13:01;;;;;;;2.33;1.27;;;;;;;-1.60;80.11;99288.61;1793480;78;20105;-60
2023/03/28 06:15:28;;;;;;;2.35;1.15;;;;;;;-1.24;79.71;99291.79;1786799;79;20941;-59
2023/03/28 06:17:56;;;;;;;1.82;1.20;;;;;;;-1.20;79.21;99292.20;1813421;77;21432;-59
2023/03/28 06:20:23;;;;;;;2.42;1.47;;;;;;;-1.23;78.37;99299.04;1822078;77;21064;-60
2023/03/28 06:22:49;;;;;;;4.92;2.10;;;;;;;-1.35;78.42;99297.41;1767781;79;21015;-60
2023/03/28 06:25:16;;;;;;;3.73;1.80;;;;;;;-1.41;78.38;99302.57;1808326;77;20951;-61
2023/03/28 06:27:42;;;;;;;3.05;1.60;;;;;;;-1.34;78.15;99299.13;1807589;78;20899;-59
2023/03/28 06:30:10;;;;;;;4.03;2.33;;;;;;;-1.16;79.16;99302.84;1806116;77;20987;-59
2023/03/28 06:32:36;;;;;;;;;;;;;;;-0.87;78.00;99308.18;1814495;78;21033;-59
2023/03/28 06:35:07;;;;;;;3.10;1.62;;;;;;;-0.95;76.60;99316.39;1809522;78;20193;-60
2023/03/28 06:37:33;;;;;;;2.70;1.50;;;;;;;-1.01;77.60;99318.97;1769496;79;20968;-59
2023/03/28 06:39:59;;;;;;;4.78;1.70;;;;;;;-1.14;77.15;99320.34;1807222;77;21075;-59
2023/03/28 06:42:26;;;;;;;3.45;1.47;;;;;;;-1.21;78.07;99331.47;1805679;77;21020;-59
2023/03/28 06:44:52;;;;;;;3.42;1.77;;;;;;;-1.19;78.25;99324.64;1774560;79;21066;-58
2023/03/28 06:47:18;;;;;;;2.12;1.42;;;;;;;-1.26;78.16;99330.67;1821558;77;21030;-58
2023/03/28 06:49:44;;;;;;;2.50;1.45;;;;;;;-1.35;78.30;99340.95;1786224;78;20999;-64
2023/03/28 06:52:11;;;;;;;3.05;1.32;;;;;;;-1.38;78.30;99339.25;1790336;78;21024;-60
2023/03/28 06:54:37;;;;;;;6.37;1.60;;;;;;;-1.35;78.34;99348.63;1796617;78;21452;-59
2023/03/28 06:57:04;;;;;;;3.67;1.45;;;;;;;-1.29;78.86;99348.59;1794108;78;21546;-59
2023/03/28 06:59:30;;;;;;;5.80;1.77;;;;;;;-1.27;78.65;99339.63;1798401;78;21015;-58
2023/03/28 07:01:56;;;;;;;8.23;1.50;;;;;;;-1.24;78.19;99354.55;1799688;78;20942;-58
2023/03/28 07:04:23;;;;;;;4.83;1.57;;;;;;;-1.19;78.25;99355.38;1796270;78;20997;-70
2023/03/28 07:06:49;;;;;;;4.12;1.70;;;;;;;-0.99;78.35;99364.66;1798404;78;21471;-59
2023/03/28 07:09:15;;;;;;;5.08;2.10;;;;;;;-0.94;78.01;99368.05;1783521;78;21056;-58
2023/03/28 07:11:41;;;;;;;4.35;1.95;;;;;;;-0.89;78.41;99370.16;1801185;78;21060;-58
2023/03/28 07:14:08;;;;;;;3.75;1.77;;;;;;;-0.48;79.45;99371.14;1798624;78;21534;-59
2023/03/28 07:16:34;;;;;;;4.13;2.07;;;;;;;0.14;79.29;99373.98;1788018;78;21441;-58
2023/03/28 07:19:01;;;;;;;6.05;1.95;;;;;;;0.46;78.76;99375.33;1762604;80;21065;-57
2023/03/28 07:21:27;;;;;;;4.00;1.80;;;;;;;0.49;78.10;99370.59;1767197;79;21010;-57
2023/03/28 07:23:55;;;;;;;3.10;1.37;;;;;;;0.37;76.96;99380.58;1761610;79;20962;-58
2023/03/28 07:26:22;;;;;;;4.87;1.75;;;;;;;0.31;78.10;99390.90;1750411;80;21578;-58
2023/03/28 07:28:48;;;;;;;3.52;1.80;;;;;;;0.16;77.14;99388.91;1793855;78;20930;-57
2023/03/28 07:31:15;;;;;;;2.95;1.50;;;;;;;-0.10;76.58;99397.32;1795157;78;20964;-58
2023/03/28 07:33:42;;;;;;;2.75;1.50;;;;;;;-0.01;78.31;99402.36;1758888;80;21020;-59
2023/03/28 07:36:15;;;;;;;2.72;1.67;;;;;;;0.40;78.49;99397.23;1788290;79;21004;-58
2023/03/28 07:38:43;;;;;;;2.90;1.65;;;;;;;1.17;78.25;99403.97;1789325;78;21062;-58
2023/03/28 07:41:11;;;;;;;5.60;1.62;;;;;;;1.74;78.29;99405.25;1761708;78;20941;-58
2023/03/28 07:43:38;;;;;;;3.25;1.50;;;;;;;1.54;77.17;99416.70;1788955;78;21060;-58
2023/03/28 07:46:07;;;;;;;4.58;1.87;;;;;;;1.31;76.23;99409.75;1760768;80;20987;-58
2023/03/28 07:48:35;;;;;;;3.02;1.62;;;;;;;1.02;77.06;99404.59;1787917;79;20989;-57
2023/03/28 07:51:05;;;;;;;3.60;1.70;;;;;;;0.87;77.13;99415.09;1762689;80;21007;-57
2023/03/28 07:53:31;;;;;;;4.70;1.40;;;;;;;0.65;76.90;99425.62;1798940;78;21566;-58
2023/03/28 07:55:58;;;;;;;3.90;1.50;;;;;;;0.39;77.28;99425.05;1789067;78;20933;-58
2023/03/28 07:58:24;;;;;;;9.05;1.70;;;;;;;0.24;77.03;99425.23;1798186;78;21605;-58
2023/03/28 08:00:50;;;;;;;3.08;1.40;;;;;;;0.08;77.28;99430.50;1799108;78;21595;-57
2023/03/28 08:03:17;;;;;;;3.15;1.57;;;;;;;0.10;77.55;99433.91;1794305;78;21414;-58
2023/03/28 08:05:50;;;;;;;1.98;0.98;;;;;;;1.59;81.50;99435.92;1797818;78;21023;-57
2023/03/28 08:08:12;;;;;;;3.47;1.15;;;;;;;2.20;75.99;99435.34;1795668;78;21049;-58
2023/03/28 08:10:39;;;;;;;3.15;1.07;;;;;;;1.90;74.00;99445.28;1794040;78;20958;-57
2023/03/28 08:13:05;;;;;;;2.92;0.95;;;;;;;1.54;73.48;99454.02;1766134;79;21120;-57
2023/03/28 08:15:31;;;;;;;3.17;1.20;;;;;;;1.07;71.73;99459.38;1779248;79;20962;-57
2023/03/28 08:17:57;;;;;;;13.00;1.20;;;;;;;0.81;74.20;99461.41;1774453;79;21002;-56
2023/03/28 08:20:24;;;;;;;1.92;0.90;;;;;;;0.68;72.60;99465.02;1789876;78;20946;-56
2023/03/28 08:22:50;;;;;;;4.13;1.33;;;;;;;0.45;74.56;99473.82;1792128;78;21028;-57
2023/03/28 08:25:16;;;;;;;4.70;0.88;;;;;;;0.48;73.72;99470.34;1788588;79;22172;-57
2023/03/28 08:27:43;;;;;;;2.75;0.93;;;;;;;0.79;75.30;99472.17;1793442;78;20926;-58
2023/03/28 08:30:10;;;;;;;2.20;1.15;;;;;;;1.76;71.81;99467.83;1792166;78;21472;-57
2023/03/28 08:32:37;;;;;;;1.52;0.68;;;;;;;2.33;73.70;99472.91;1793056;78;21072;-57
2023/03/28 08:35:05;;;;;;;0.80;0.65;;;;;;;1.85;71.72;99480.58;1787467;79;20941;-57
2023/03/28 08:37:31;;;;;;;2.55;0.90;;;;;;;1.53;71.26;99480.61;1792725;78;21016;-58
2023/03/28 08:39:57;;;;;;;4.33;0.93;;;;;;;1.38;72.02;99489.84;1786349;78;21107;-58
2023/03/28 08:42:42;;;;;;;3.03;0.80;;;;;;;1.82;71.19;99490.93;1795285;78;21080;-57
2023/03/28 08:45:24;;;;;;;1.42;0.85;;;;;;;1.99;71.63;99494.08;1789019;79;21071;-57
2023/03/28 08:48:11;;;;;;;3.52;0.90;;;;;;;3.18;73.47;99482.42;1789621;78;20962;-58
2023/03/28 08:50:44;;;;;;;4.03;1.67;;;;;;;3.04;67.69;99494.77;1777014;78;21559;-58
2023/03/28 08:53:37;;;;;;;3.80;1.22;;;;;;;3.18;68.09;99495.33;1783992;79;21486;-57
2023/03/28 08:56:06;;;;;;;1.67;0.80;;;;;;;4.20;63.48;99494.73;1793247;78;21416;-57
2023/03/28 08:58:49;;;;;;;3.55;1.00;;;;;;;3.41;65.11;99512.90;1798672;79;21024;-58
2023/03/28 09:01:21;;;;;;;5.00;0.90;;;;;;;2.84;68.03;99519.21;1791227;78;21524;-58
2023/03/28 09:03:48;;;;;;;0.98;0.70;;;;;;;2.56;70.26;99516.73;1794107;78;21040;-58
2023/03/28 09:06:25;;;;;;;2.10;0.88;;;;;;;2.33;68.07;99521.02;1794950;78;20934;-58
2023/03/28 09:09:23;;;;;;;2.80;0.90;;;;;;;2.31;65.13;99517.16;1792413;78;20937;-57
2023/03/28 09:12:13;;;;;;;3.35;0.90;;;;;;;2.08;67.23;99534.73;1785398;79;21039;-58
2023/03/28 09:15:03;;;;;;;5.70;1.02;;;;;;;1.87;68.88;99534.16;1792803;79;20960;-58
2023/03/28 09:17:40;;;;;;;5.00;1.20;;;;;;;2.74;69.71;99527.98;1794044;79;20942;-58
2023/03/28 09:20:21;;;;;;;2.27;0.95;;;;;;;4.81;67.57;99512.11;1760539;79;21599;-60
2023/03/28 09:23:08;;;;;;;1.95;1.10;;;;;;;7.16;69.98;99519.80;1787132;78;21531;-60
2023/03/28 09:25:50;;;;;;;4.75;1.12;;;;;;;9.60;59.79;99517.06;1741352;79;20965;-60
2023/03/28 09:28:38;;;;;;;3.47;0.90;;;;;;;10.90;67.79;99519.00;1794634;78;21016;-58
2023/03/28 09:31:08;;;;;;;2.77;1.02;;;;;;;9.24;54.74;99538.28;1790178;79;20907;-58
2023/03/28 09:33:37;;;;;;;6.47;0.85;;;;;;;6.85;61.81;99544.25;1791061;79;21029;-59
2023/03/28 09:36:29;;;;;;;3.35;0.80;;;;;;;5.27;61.54;99549.66;1785154;78;21705;-58
2023/03/28 09:38:56;;;;;;;4.47;1.50;;;;;;;4.03;59.76;99557.15;1794642;78;21056;-59
2023/03/28 09:41:28;;;;;;;1.20;0.80;;;;;;;2.43;61.64;99569.77;1783933;78;21076;-58
2023/03/28 09:43:58;;;;;;;1.15;0.70;;;;;;;2.19;65.04;99567.61;1787515;79;21026;-58
2023/03/28 09:46:31;;;;;;;2.47;1.17;;;;;;;2.40;64.83;99569.82;1793933;78;21026;-58
2023/03/28 09:48:58;;;;;;;2.47;1.40;;;;;;;3.55;64.68;99569.39;1792409;78;21614;-58
2023/03/28 09:51:31;;;;;;;4.97;1.40;;;;;;;3.60;64.08;99572.73;1790494;78;21088;-58
2023/03/28 09:53:54;;;;;;;3.60;1.00;;;;;;;2.87;63.10;99585.35;1793314;78;21647;-58
2023/03/28 09:56:33;;;;;;;1.75;0.78;;;;;;;1.74;64.75;99588.85;1784376;79;21013;-57
2023/03/28 09:59:05;;;;;;;1.57;1.20;;;;;;;0.96;65.71;99583.36;1789785;79;21496;-58
2023/03/28 10:01:42;;;;;;;3.67;0.90;;;;;;;1.15;66.28;99595.59;1791167;79;21520;-57
2023/03/28 10:04:20;;;;;;;2.47;1.10;;;;;;;2.34;67.89;99587.96;1789182;79;21093;-58
2023/03/28 10:06:49;;;;;;;;;;;;;;;4.74;65.26;99583.02;1759828;78;20915;-58
2023/03/28 10:09:25;;;;;;;2.47;0.95;;;;;;;7.30;65.97;99573.83;1785030;79;20096;-59
2023/03/28 10:12:00;;;;;;;3.00;1.10;;;;;;;8.96;64.22;99566.84;1792796;79;20935;-58
2023/03/28 10:14:39;;;;;;;1.45;0.60;;;;;;;10.61;66.54;99580.98;1794116;79;20929;-59
2023/03/28 10:17:08;;;;;;;1.62;0.60;;;;;;;9.43;51.65;99589.13;1782376;79;20951;-59
2023/03/28 10:19:38;;;;;;;1.00;0.62;;;;;;;7.06;60.35;99588.55;1786929;78;21430;-58
2023/03/28 10:22:16;;;;;;;1.37;0.60;;;;;;;4.49;62.36;99597.84;1789091;79;21033;-58
2023/03/28 10:24:45;;;;;;;2.10;0.80;;;;;;;4.49;62.36;99597.84;1789714;79;21571;-58
2023/03/28 10:27:24;;;;;;;2.17;1.00;;;;;;;5.82;67.04;99607.61;1788310;79;21026;-58
2023/03/28 10:29:54;;;;;;;1.72;1.10;;;;;;;5.82;67.04;99607.61;1786063;78;21560;-58
2023/03/28 10:32:26;;;;;;;1.17;0.80;;;;;;;9.09;65.81;99596.66;1788837;78;21077;-60
2023/03/28 10:35:01;;;;;;;1.07;0.78;;;;;;;10.41;65.42;99601.08;1790357;79;21494;-60
2023/03/28 10:37:33;;;;;;;1.35;0.90;;;;;;;11.43;55.66;99588.98;1783161;79;20943;-59
2023/03/28 10:40:05;;;;;;;2.37;1.15;;;;;;;13.78;56.81;99588.59;1788674;78;20979;-57
2023/03/28 10:42:42;;;;;;;3.62;0.90;;;;;;;15.95;62.74;99582.89;1789907;79;21046;-55
2023/03/28 10:45:38;;;;;;;2.17;0.90;;;;;;;17.91;60.95;99581.25;1788121;78;21482;-57
2023/03/28 10:48:08;;;;;;;3.07;1.23;;;;;;;16.04;54.65;99588.31;1702438;83;22434;-56
2023/03/28 10:50:48;;;;;;;2.55;0.90;;;;;;;13.55;51.42;99595.27;1688692;83;21068;-59
2023/03/28 10:53:29;;;;;;;1.10;0.60;;;;;;;11.48;53.81;99601.80;1698726;83;21731;-58
2023/03/28 10:56:15;;;;;;;1.65;0.60;;;;;;;8.88;53.82;99609.31;1696212;83;21085;-58
2023/03/28 10:59:03;;;;;;;3.77;0.80;;;;;;;7.31;55.15;99624.44;1695549;83;21068;-57
2023/03/28 11:01:40;;;;;;;1.57;0.57;;;;;;;5.89;54.39;99629.88;1701909;83;21048;-58
2023/03/28 11:04:32;;;;;;;3.77;1.35;;;;;;;4.45;54.96;99638.86;1697621;83;22423;-58
2023/03/28 11:07:13;;;;;;;2.67;1.20;;;;;;;3.68;55.61;99645.72;1700095;83;21020;-58
2023/03/28 11:09:55;;;;;;;8.33;1.17;;;;;;;3.65;56.48;99643.20;1701298;83;21501;-57
2023/03/28 11:12:55;;;;;;;1.05;0.85;;;;;;;4.26;54.83;99641.89;1698523;82;21093;-57
2023/03/28 11:15:30;;;;;;;1.67;0.93;;;;;;;4.74;55.00;99648.97;1677513;83;21006;-58
2023/03/28 11:18:08;;;;;;;3.45;0.82;;;;;;;4.05;54.43;99650.11;1701732;83;21013;-58
2023/03/28 11:20:41;;;;;;;1.98;1.37;;;;;;;3.83;56.00;99651.45;1699591;83;20945;-57
2023/03/28 11:23:30;;;;;;;1.87;1.10;;;;;;;3.99;56.75;99665.75;1702084;82;21107;-58
2023/03/28 11:26:12;;;;;;;2.80;0.90;;;;;;;4.61;51.32;99662.18;1789159;78;20995;-58
2023/03/28 11:28:35;;;;;;;;;;;;;;;3.88;50.40;99671.58;1789087;78;21037;-59
2023/03/28 11:31:09;;;;;;;3.58;0.80;;;;;;;3.30;53.03;99669.25;1784353;78;20171;-58
2023/03/28 11:34:07;;;;;;;3.00;1.15;;;;;;;2.93;54.58;99677.23;1759058;79;21025;-59
2023/03/28 11:36:43;;;;;;;4.53;2.27;;;;;;;2.29;54.71;99682.50;1794496;78;21593;-58
2023/03/28 11:39:15;;;;;;;2.30;1.30;;;;;;;2.20;55.41;99678.78;1795673;78;21516;-58
2023/03/28 11:41:43;;;;;;;2.42;1.07;;;;;;;2.23;55.77;99682.59;1788791;78;20974;-58
2023/03/28 11:44:25;;;;;;;1.98;1.22;;;;;;;4.76;55.14;99674.33;1789110;78;20909;-58
2023/03/28 11:46:55;;;;;;;1.70;0.98;;;;;;;8.33;56.30;99664.86;1790595;79;21128;-59
2023/03/28 11:49:35;;;;;;;1.80;1.15;;;;;;;9.70;53.77;99662.66;1791195;78;21009;-59
2023/03/28 11:52:16;;;;;;;8.40;2.20;;;;;;;10.90;53.57;99656.14;1787255;78;21067;-58
2023/03/28 11:54:49;;;;;;;3.45;1.45;;;;;;;11.72;53.82;99659.34;1790711;78;21564;-58
2023/03/28 11:57:28;;;;;;;2.10;1.10;;;;;;;11.86;48.98;99663.41;1793583;78;21030;-57